createdAt,value
2019-05-09T00:04:29.847Z,98532.23
2019-05-09T00:09:33.439Z,98527.75
2019-05-09T00:14:34.991Z,98514.11
2019-05-09T00:19:36.546Z,98519.69
2019-05-09T00:24:38.142Z,98513.92
2019-05-09T00:29:44.178Z,98513.51
2019-05-09T00:35:20.603Z,98524.97
2019-05-09T00:40:23.861Z,98541.31
2019-05-09T00:45:45.147Z,98518.30
2019-05-09T00:50:46.706Z,98537.77
2019-05-09T00:55:48.406Z,98538.59
2019-05-09T01:00:50.014Z,98539.77
2019-05-09T01:05:51.563Z,98532.08
2019-05-09T01:11:08.243Z,98542.63
2019-05-09T01:15:56.725Z,98536.23
2019-05-09T01:20:58.454Z,98539.69
2019-05-09T01:26:00.131Z,98539.99
2019-05-09T01:31:03.935Z,98544.97
2019-05-09T01:36:05.464Z,98552.77
2019-05-09T01:41:07.140Z,98560.15
2019-05-09T01:46:08.807Z,98556.41
2019-05-09T01:51:10.356Z,98539.17
2019-05-09T01:56:14.014Z,98541.72
2019-05-09T02:01:15.626Z,98543.79
2019-05-09T02:06:17.219Z,98527.75
2019-05-09T02:11:18.769Z,98534.86
2019-05-09T02:16:37.872Z,98541.56
2019-05-09T02:21:39.525Z,98541.98
2019-05-09T02:26:41.083Z,98546.65
2019-05-09T02:31:44.592Z,98529.10
2019-05-09T02:36:49.369Z,98530.03
2019-05-09T02:42:01.058Z,98549.89
2019-05-09T02:47:08.996Z,98549.01
2019-05-09T02:52:10.817Z,98545.05
2019-05-09T02:57:12.486Z,98544.53
2019-05-09T03:02:22.193Z,98554.47
2019-05-09T03:07:43.517Z,98538.30
2019-05-09T03:12:45.198Z,98541.23
2019-05-09T03:17:49.425Z,98554.11
2019-05-09T03:22:50.501Z,98548.13
2019-05-09T03:27:58.753Z,98544.34
2019-05-09T03:33:00.458Z,98536.13
2019-05-09T03:38:04.735Z,98546.67
2019-05-09T03:43:07.983Z,98560.67
2019-05-09T03:48:18.009Z,98554.09
2019-05-09T03:53:19.767Z,98562.19
2019-05-09T03:58:21.914Z,98557.21
2019-05-09T04:03:23.582Z,98560.98
2019-05-09T04:08:25.157Z,98578.91
2019-05-09T04:13:31.982Z,98576.80
2019-05-09T04:18:33.508Z,98567.27
2019-05-09T04:23:35.169Z,98577.80
2019-05-09T04:28:39.633Z,98575.97
2019-05-09T04:33:40.267Z,98580.05
2019-05-09T04:38:41.984Z,98594.94
2019-05-09T04:43:43.850Z,98598.36
2019-05-09T04:48:47.518Z,98597.27
2019-05-09T04:53:48.843Z,98594.41
2019-05-09T04:58:50.388Z,98612.16
2019-05-09T05:03:53.965Z,98606.09
2019-05-09T05:08:55.495Z,98600.41
2019-05-09T05:13:58.618Z,98609.11
2019-05-09T05:19:00.621Z,98612.84
2019-05-09T05:24:08.310Z,98621.77
2019-05-09T05:29:09.860Z,98621.58
2019-05-09T05:34:18.246Z,98625.61
2019-05-09T05:39:19.897Z,98628.55
2019-05-09T05:44:21.466Z,98633.03
2019-05-09T05:49:23.137Z,98633.12
2019-05-09T05:54:24.686Z,98632.44
2019-05-09T05:59:28.375Z,98633.95
2019-05-09T06:04:29.699Z,98638.38
2019-05-09T06:09:31.351Z,98626.81
2019-05-09T06:14:32.879Z,98625.31
2019-05-09T06:19:34.418Z,98633.30
2019-05-09T06:24:38.431Z,98631.16
2019-05-09T06:29:39.410Z,98639.06
2019-05-09T06:34:42.155Z,98635.33
2019-05-09T06:39:43.919Z,98634.09
2019-05-09T06:45:07.581Z,98637.15
2019-05-09T06:50:11.098Z,98636.54
2019-05-09T06:55:12.770Z,98652.26
2019-05-09T07:00:24.986Z,98649.70
2019-05-09T07:05:31.662Z,98635.69
2019-05-09T07:10:33.314Z,98635.00
2019-05-09T07:15:34.860Z,98639.97
2019-05-09T07:20:37.890Z,98633.91
2019-05-09T07:26:02.020Z,98635.61
2019-05-09T07:31:29.323Z,98641.19
2019-05-09T07:36:31.088Z,98637.94
2019-05-09T07:41:33.755Z,98642.91
2019-05-09T07:46:41.173Z,98635.69
2019-05-09T07:51:42.711Z,98630.83
2019-05-09T07:56:44.351Z,98642.37
2019-05-09T08:01:45.901Z,98642.72
2019-05-09T08:06:48.642Z,98643.63
2019-05-09T08:11:50.490Z,98639.29
2019-05-09T08:16:52.214Z,98645.52
2019-05-09T08:21:53.801Z,98649.17
2019-05-09T08:26:57.826Z,98649.52
2019-05-09T08:31:58.900Z,98649.77
2019-05-09T08:37:00.593Z,98654.87
2019-05-09T08:42:02.164Z,98661.88
2019-05-09T08:47:03.897Z,98656.30
2019-05-09T08:52:15.876Z,98653.61
2019-05-09T08:57:13.271Z,98646.44
2019-05-09T09:02:18.804Z,98653.14
2019-05-09T09:07:19.092Z,98653.30
2019-05-09T09:12:30.347Z,98648.56
2019-05-09T09:17:24.364Z,98657.89
2019-05-09T09:22:28.169Z,98651.89
2019-05-09T09:27:29.991Z,98655.08
2019-05-09T09:32:31.712Z,98649.74
2019-05-09T09:37:47.621Z,98652.03
2019-05-09T09:42:39.645Z,98645.63
2019-05-09T09:47:40.757Z,98643.44
2019-05-09T09:52:42.356Z,98638.58
2019-05-09T09:57:43.932Z,98640.79
2019-05-09T10:02:48.113Z,98642.61
2019-05-09T10:07:49.191Z,98634.48
2019-05-09T10:12:51.125Z,98637.13
2019-05-09T10:18:12.386Z,98632.78
2019-05-09T10:23:18.813Z,98631.70
2019-05-09T10:28:21.491Z,98626.63
2019-05-09T10:33:20.974Z,98616.83
2019-05-09T10:38:22.566Z,98628.00
2019-05-09T10:43:38.866Z,98622.13
2019-05-09T10:48:40.170Z,98618.16
2019-05-09T10:53:41.751Z,98617.05
2019-05-09T10:58:43.415Z,98614.28
2019-05-09T11:03:45.002Z,98609.80
2019-05-09T11:08:47.634Z,98606.63
2019-05-09T11:13:49.571Z,98610.59
2019-05-09T11:18:51.149Z,98598.83
2019-05-09T11:23:53.565Z,98602.30
2019-05-09T11:28:55.152Z,98599.66
2019-05-09T11:33:57.855Z,98602.07
2019-05-09T11:39:00.753Z,98609.80
2019-05-09T11:44:02.500Z,98607.45
2019-05-09T11:49:04.188Z,98607.44
2019-05-09T11:54:05.828Z,98606.11
2019-05-09T11:59:08.016Z,98600.14
2019-05-09T12:04:09.662Z,98595.38
2019-05-09T12:09:14.470Z,98598.37
2019-05-09T12:14:14.742Z,98590.12
2019-05-09T12:19:17.990Z,98587.41
2019-05-09T12:24:19.937Z,98590.06
2019-05-09T12:29:21.630Z,98589.56
2019-05-09T12:34:23.332Z,98592.72
2019-05-09T12:39:27.399Z,98580.66
2019-05-09T12:44:28.963Z,98591.81
2019-05-09T12:49:30.828Z,98598.61
2019-05-09T12:54:32.451Z,98589.07
2019-05-09T12:59:46.538Z,98587.94
2019-05-09T13:04:38.245Z,98594.82
2019-05-09T13:09:39.882Z,98586.00
2019-05-09T13:14:41.558Z,98590.86
2019-05-09T13:19:47.805Z,98583.96
2019-05-09T13:24:48.954Z,98579.98
2019-05-09T13:29:50.735Z,98582.45
2019-05-09T13:34:52.343Z,98583.31
2019-05-09T13:39:54.035Z,98581.59
2019-05-09T13:44:55.783Z,98575.22
2019-05-09T13:49:59.158Z,98573.37
2019-05-09T13:55:00.877Z,98577.64
2019-05-09T14:00:03.272Z,98584.00
2019-05-09T14:05:05.044Z,98572.07
2019-05-09T14:10:08.996Z,98568.97
2019-05-09T14:15:10.584Z,98579.04
2019-05-09T14:20:12.276Z,98569.28
2019-05-09T14:25:13.807Z,98572.47
2019-05-09T14:30:15.471Z,98577.88
2019-05-09T14:35:18.191Z,98582.16
2019-05-09T14:40:20.070Z,98578.06
2019-05-09T14:45:21.852Z,98577.78
2019-05-09T14:50:23.493Z,98577.11
2019-05-09T14:55:25.038Z,98567.28
2019-05-09T15:00:26.702Z,98575.16
2019-05-09T15:05:28.266Z,98584.68
2019-05-09T15:10:29.957Z,98583.61
2019-05-09T15:15:32.781Z,98575.04
2019-05-09T15:20:34.450Z,98569.17
2019-05-09T15:25:36.129Z,98576.50
2019-05-09T15:30:38.510Z,98578.81
2019-05-09T15:35:40.272Z,98572.78
2019-05-09T15:40:41.965Z,98573.63
2019-05-09T15:45:58.430Z,98576.27
2019-05-09T15:50:59.964Z,98582.20
2019-05-09T15:56:01.499Z,98576.28
2019-05-09T16:01:03.585Z,98574.95
2019-05-09T16:06:05.144Z,98573.09
2019-05-09T16:11:08.715Z,98571.33
2019-05-09T16:16:10.320Z,98573.91
2019-05-09T16:21:12.042Z,98567.77
2019-05-09T16:26:13.589Z,98558.20
2019-05-09T16:31:15.258Z,98566.38
2019-05-09T16:36:17.545Z,98577.28
2019-05-09T16:41:19.315Z,98570.73
2019-05-09T16:46:21.002Z,98573.58
2019-05-09T16:51:22.575Z,98567.54
2019-05-09T16:56:24.235Z,98573.64
2019-05-09T17:01:28.220Z,98576.44
2019-05-09T17:06:29.282Z,98581.80
2019-05-09T17:11:30.957Z,98585.13
2019-05-09T17:16:32.558Z,98600.60
2019-05-09T17:21:47.901Z,98607.53
2019-05-09T17:26:49.260Z,98604.76
2019-05-09T17:31:50.802Z,98599.65
2019-05-09T17:36:52.343Z,98603.05
2019-05-09T17:41:54.013Z,98607.48
2019-05-09T17:46:57.769Z,98611.75
2019-05-09T17:51:59.124Z,98613.06
2019-05-09T17:57:00.808Z,98618.62
2019-05-09T18:02:02.365Z,98625.16
2019-05-09T18:07:03.922Z,98629.88
2019-05-09T18:12:05.574Z,98639.06
2019-05-09T18:17:07.224Z,98636.33
2019-05-09T18:22:08.864Z,98633.76
2019-05-09T18:27:10.406Z,98633.47
2019-05-09T18:32:27.520Z,98635.62
2019-05-09T18:37:29.306Z,98637.39
2019-05-09T18:42:31.083Z,98641.03
2019-05-09T18:47:32.664Z,98647.81
2019-05-09T18:52:34.346Z,98649.58
2019-05-09T18:57:36.106Z,98648.36
2019-05-09T19:02:37.792Z,98663.33
2019-05-09T19:07:39.515Z,98671.37
2019-05-09T19:12:41.200Z,98671.23
2019-05-09T19:18:11.457Z,98678.23
2019-05-09T19:23:13.120Z,98690.01
2019-05-09T19:28:14.686Z,98686.72
2019-05-09T19:33:16.227Z,98697.25
2019-05-09T19:38:17.760Z,98707.31
2019-05-09T19:43:19.306Z,98704.46
2019-05-09T19:48:20.854Z,98709.23
2019-05-09T19:53:22.400Z,98716.82
2019-05-09T19:58:23.927Z,98718.28
2019-05-09T20:03:25.473Z,98724.02
2019-05-09T20:08:27.023Z,98723.96
2019-05-09T20:13:33.093Z,98723.61
2019-05-09T20:18:34.629Z,98730.13
2019-05-09T20:23:36.178Z,98725.51
2019-05-09T20:28:37.735Z,98732.86
2019-05-09T20:33:39.289Z,98735.94
2019-05-09T20:38:40.835Z,98737.44
2019-05-09T20:43:42.373Z,98744.25
2019-05-09T20:48:43.929Z,98749.42
2019-05-09T20:53:45.461Z,98752.94
2019-05-09T20:58:47.013Z,98754.69
2019-05-09T21:03:59.607Z,98750.82
2019-05-09T21:08:52.025Z,98762.66
2019-05-09T21:13:53.578Z,98767.66
2019-05-09T21:18:55.233Z,98769.64
2019-05-09T21:23:56.791Z,98780.36
2019-05-09T21:28:58.342Z,98783.00
2019-05-09T21:33:59.893Z,98786.06
2019-05-09T21:39:01.426Z,98787.81
2019-05-09T21:44:03.245Z,98796.70
2019-05-09T21:49:04.795Z,98796.70
2019-05-09T21:54:06.434Z,98793.95
2019-05-09T21:59:08.066Z,98799.41
2019-05-09T22:04:09.763Z,98812.75
2019-05-09T22:09:11.531Z,98812.45
2019-05-09T22:14:13.079Z,98821.03
2019-05-09T22:19:14.744Z,98831.20
2019-05-09T22:24:16.397Z,98830.69
2019-05-09T22:29:18.065Z,98840.70
2019-05-09T22:34:19.732Z,98850.67
2019-05-09T22:39:21.397Z,98847.33
2019-05-09T22:44:23.067Z,98847.25
2019-05-09T22:49:24.719Z,98850.53
2019-05-09T22:54:26.280Z,98858.30
2019-05-09T22:59:27.835Z,98858.00
2019-05-09T23:04:29.516Z,98853.52
2019-05-09T23:09:31.196Z,98862.61
2019-05-09T23:14:32.847Z,98862.54
2019-05-09T23:19:34.543Z,98864.80
2019-05-09T23:24:37.141Z,98867.94
2019-05-09T23:29:38.809Z,98860.64
2019-05-09T23:34:40.359Z,98865.66
2019-05-09T23:39:44.145Z,98864.67
2019-05-09T23:44:45.826Z,98867.61
2019-05-09T23:49:47.393Z,98875.02
2019-05-09T23:55:07.331Z,98874.44
